Time;durP1;ratioP1;P1;durP2;ratioP2;P2;SDS_P1;SDS_P2;PMS_P1;PMS_P2;Temp;Humidity;BMP_temperature;BMP_pressure;BME280_temperature;BME280_humidity;BME280_pressure;Samples;Min_cycle;Max_cycle;Signal;HPM_P1;HPM_P2
2024/04/09 00:01:08;;;;;;;6.27;3.23;;;19.90;78.20;;;;;;5379216;26;20000;-77
2024/04/09 00:03:37;;;;;;;4.10;2.83;;;19.90;78.30;;;;;;5404961;26;19999;-78
2024/04/09 00:06:14;;;;;;;5.97;3.30;;;19.80;78.30;;;;;;5381511;26;20045;-78
2024/04/09 00:08:44;;;;;;;5.25;3.00;;;19.90;78.30;;;;;;5372619;26;20437;-78
2024/04/09 00:11:21;;;;;;;7.03;3.45;;;19.90;78.40;;;;;;5378519;26;20274;-77
2024/04/09 00:13:51;;;;;;;4.00;2.95;;;19.80;78.40;;;;;;5390206;26;20006;-77
2024/04/09 00:16:24;;;;;;;4.47;3.10;;;19.80;78.40;;;;;;5411357;26;20004;-78
2024/04/09 00:18:54;;;;;;;4.70;3.22;;;19.80;78.50;;;;;;5413697;26;20014;-77
2024/04/09 00:21:24;;;;;;;4.85;2.78;;;19.80;78.40;;;;;;5393673;26;20005;-80
2024/04/09 00:23:50;;;;;;;5.00;3.33;;;19.80;78.40;;;;;;5394199;26;20440;-80
2024/04/09 00:26:16;;;;;;;6.32;3.00;;;19.80;78.40;;;;;;5373562;26;20014;-79
2024/04/09 00:28:42;;;;;;;5.68;3.25;;;19.80;78.40;;;;;;5413844;26;20004;-77
2024/04/09 00:31:08;;;;;;;6.43;2.72;;;19.80;78.50;;;;;;5413946;26;19999;-80
2024/04/09 00:33:34;;;;;;;4.67;2.93;;;19.80;78.40;;;;;;5399683;26;20000;-76
2024/04/09 00:35:59;;;;;;;4.37;2.97;;;19.80;78.50;;;;;;5406368;26;20012;-77
2024/04/09 00:38:27;;;;;;;4.87;3.53;;;19.80;78.50;;;;;;5389603;26;20035;-78
2024/04/09 00:40:53;;;;;;;7.90;3.05;;;19.70;78.60;;;;;;5409691;26;20003;-78
2024/04/09 00:43:19;;;;;;;6.22;3.20;;;19.70;78.50;;;;;;5385000;26;20015;-79
2024/04/09 00:45:47;;;;;;;4.40;2.67;;;19.70;78.50;;;;;;5392164;26;20004;-78
2024/04/09 00:48:13;;;;;;;4.38;3.00;;;19.70;78.60;;;;;;5394035;26;20461;-77
2024/04/09 00:50:43;;;;;;;6.07;3.33;;;19.70;78.60;;;;;;5374685;26;20011;-78
2024/04/09 00:53:11;;;;;;;6.40;3.38;;;19.70;78.60;;;;;;5383026;26;20043;-77
2024/04/09 00:55:42;;;;;;;5.80;2.88;;;19.70;78.60;;;;;;5377120;26;20019;-78
2024/04/09 00:58:11;;;;;;;3.97;3.05;;;19.70;78.70;;;;;;5389019;26;20019;-77
2024/04/09 01:00:40;;;;;;;6.25;3.05;;;19.70;78.60;;;;;;5376523;26;20001;-76
2024/04/09 01:03:09;;;;;;;5.13;3.00;;;19.70;78.60;;;;;;5376908;26;20550;-78
2024/04/09 01:05:36;;;;;;;4.90;3.13;;;19.70;78.70;;;;;;5390934;26;20003;-77
2024/04/09 01:08:03;;;;;;;4.95;2.45;;;19.70;78.70;;;;;;5381932;26;20012;-77
2024/04/09 01:10:29;;;;;;;3.58;2.75;;;19.70;78.70;;;;;;5375874;26;20790;-78
2024/04/09 01:12:54;;;;;;;4.95;2.97;;;19.60;78.70;;;;;;5377211;26;19996;-79
2024/04/09 01:15:20;;;;;;;6.57;2.67;;;19.60;78.70;;;;;;5386489;26;20070;-78
2024/04/09 01:17:46;;;;;;;3.83;2.50;;;19.60;78.70;;;;;;5405694;26;20018;-77
2024/04/09 01:20:13;;;;;;;5.27;2.50;;;19.60;78.70;;;;;;5383399;26;20008;-78
2024/04/09 01:22:41;;;;;;;4.60;2.95;;;19.60;78.70;;;;;;5381132;26;20004;-77
2024/04/09 01:25:10;;;;;;;5.15;3.13;;;19.60;78.70;;;;;;5379678;26;20018;-77
2024/04/09 01:27:41;;;;;;;4.03;3.08;;;19.60;78.70;;;;;;5376067;26;20007;-77
2024/04/09 01:30:08;;;;;;;3.40;2.50;;;19.60;78.70;;;;;;5393331;26;20032;-77
2024/04/09 01:32:36;;;;;;;3.58;2.67;;;19.60;78.70;;;;;;5390355;26;20007;-78
2024/04/09 01:35:08;;;;;;;8.57;2.90;;;19.60;78.70;;;;;;5360047;26;20023;-77
2024/04/09 01:37:36;;;;;;;3.10;2.33;;;19.50;78.80;;;;;;5375857;26;19996;-78
2024/04/09 01:40:03;;;;;;;10.75;2.28;;;19.50;78.80;;;;;;5397867;26;20087;-79
2024/04/09 01:42:29;;;;;;;;;;;19.60;78.70;;;;;;5393191;26;20076;-78
2024/04/09 01:44:54;;;;;;;4.60;2.00;;;19.50;78.70;;;;;;5408137;26;19925;-77
2024/04/09 01:47:21;;;;;;;5.53;2.43;;;19.50;78.80;;;;;;5378612;26;20010;-78
2024/04/09 01:49:47;;;;;;;3.35;2.20;;;19.50;78.90;;;;;;5383712;26;20057;-77
2024/04/09 01:52:14;;;;;;;4.88;2.45;;;19.50;78.80;;;;;;5397480;26;20027;-78
2024/04/09 01:54:46;;;;;;;;;;;19.50;78.90;;;;;;5402345;26;20001;-78
2024/04/09 01:57:12;;;;;;;3.88;2.30;;;19.50;78.80;;;;;;5422969;26;19934;-78
2024/04/09 01:59:39;;;;;;;3.13;2.20;;;19.50;78.90;;;;;;5412459;26;20357;-77
2024/04/09 02:02:06;;;;;;;6.25;2.38;;;19.50;78.90;;;;;;5412321;26;20003;-77
2024/04/09 02:04:32;;;;;;;2.60;2.05;;;19.50;78.90;;;;;;5401717;26;20018;-78
2024/04/09 02:06:58;;;;;;;5.28;2.35;;;19.50;79.00;;;;;;5409712;26;20008;-78
2024/04/09 02:09:25;;;;;;;4.50;2.10;;;19.50;78.90;;;;;;5413373;26;20001;-78
2024/04/09 02:11:51;;;;;;;4.78;2.30;;;19.50;78.90;;;;;;5387897;26;20000;-78
2024/04/09 02:14:16;;;;;;;2.70;1.93;;;19.50;79.00;;;;;;5398971;26;20040;-77
2024/04/09 02:16:43;;;;;;;2.85;1.98;;;19.40;79.00;;;;;;5397783;26;20014;-77
2024/04/09 02:19:08;;;;;;;3.10;2.10;;;19.40;79.00;;;;;;5412116;26;19995;-78
2024/04/09 02:21:34;;;;;;;5.60;2.10;;;19.40;79.00;;;;;;5402279;26;20037;-77
2024/04/09 02:24:01;;;;;;;3.50;1.70;;;19.40;79.10;;;;;;5400417;26;20004;-80
2024/04/09 02:26:29;;;;;;;;;;;19.40;79.10;;;;;;5378042;26;20799;-79
2024/04/09 02:28:55;;;;;;;2.55;2.03;;;19.40;79.00;;;;;;5376095;26;19926;-77
2024/04/09 02:31:21;;;;;;;1.85;1.70;;;19.40;79.00;;;;;;5389161;26;20008;-77
2024/04/09 02:33:46;;;;;;;2.50;2.30;;;19.40;79.10;;;;;;5407113;26;19999;-77
2024/04/09 02:36:12;;;;;;;3.07;2.40;;;19.40;79.10;;;;;;5386782;26;20084;-77
2024/04/09 02:38:38;;;;;;;4.40;2.10;;;19.40;79.10;;;;;;5399253;26;20004;-78
2024/04/09 02:41:05;;;;;;;3.10;2.17;;;19.40;79.10;;;;;;5390044;26;20040;-77
2024/04/09 02:43:31;;;;;;;2.20;1.90;;;19.40;79.10;;;;;;5413825;26;20439;-78
2024/04/09 02:45:58;;;;;;;2.63;1.70;;;19.30;79.20;;;;;;5411670;26;20014;-78
2024/04/09 02:48:24;;;;;;;3.40;2.00;;;19.40;79.00;;;;;;5411942;26;20007;-77
2024/04/09 02:50:58;;;;;;;2.80;2.00;;;19.30;79.10;;;;;;5411765;26;20481;-78
2024/04/09 02:53:24;;;;;;;3.15;2.08;;;19.30;79.10;;;;;;5379170;26;19996;-78
2024/04/09 02:56:00;;;;;;;1.75;1.48;;;19.30;79.20;;;;;;5379510;26;20012;-79
2024/04/09 02:58:25;;;;;;;3.92;1.92;;;19.30;79.10;;;;;;5412366;26;20348;-77
2024/04/09 03:00:51;;;;;;;2.30;1.60;;;19.30;79.20;;;;;;5413683;26;20014;-77
2024/04/09 03:03:17;;;;;;;2.00;1.70;;;19.30;79.20;;;;;;5411457;26;20392;-78
2024/04/09 03:05:42;;;;;;;2.40;1.70;;;19.30;79.20;;;;;;5413541;26;19999;-78
2024/04/09 03:08:08;;;;;;;2.37;1.80;;;19.30;79.20;;;;;;5379719;26;20011;-77
2024/04/09 03:10:34;;;;;;;1.50;1.40;;;19.30;79.20;;;;;;5395330;26;20103;-77
2024/04/09 03:13:00;;;;;;;3.00;1.60;;;19.30;79.20;;;;;;5386910;26;20523;-78
2024/04/09 03:15:26;;;;;;;1.95;1.50;;;19.30;79.20;;;;;;5393021;26;20098;-78
2024/04/09 03:17:56;;;;;;;2.40;1.40;;;19.20;79.20;;;;;;5410710;26;20011;-79
2024/04/09 03:20:21;;;;;;;1.88;1.50;;;19.30;79.20;;;;;;5383897;26;20457;-78
2024/04/09 03:22:47;;;;;;;2.20;1.50;;;19.20;79.30;;;;;;5401675;26;20012;-78
2024/04/09 03:25:13;;;;;;;4.20;1.90;;;19.20;79.30;;;;;;5381923;26;20453;-77
2024/04/09 03:27:38;;;;;;;1.77;1.57;;;19.20;79.30;;;;;;5390441;26;20324;-78
2024/04/09 03:30:05;;;;;;;2.63;1.37;;;19.20;79.30;;;;;;5386552;26;20012;-77
2024/04/09 03:32:31;;;;;;;5.55;1.52;;;19.20;79.40;;;;;;5379989;26;19992;-77
2024/04/09 03:34:57;;;;;;;2.22;1.30;;;19.20;79.40;;;;;;5399330;26;20011;-78
2024/04/09 03:37:22;;;;;;;2.17;1.30;;;19.20;79.40;;;;;;5391372;26;20005;-79
2024/04/09 03:39:48;;;;;;;1.70;1.40;;;19.20;79.30;;;;;;5361961;26;20416;-79
2024/04/09 03:42:14;;;;;;;2.33;1.53;;;19.20;79.40;;;;;;5386269;26;20024;-78
2024/04/09 03:44:40;;;;;;;2.13;1.43;;;19.10;79.30;;;;;;5406992;26;20003;-78
2024/04/09 03:47:05;;;;;;;1.67;1.27;;;19.20;79.40;;;;;;5388451;26;20008;-77
2024/04/09 03:49:33;;;;;;;3.00;1.53;;;19.20;79.40;;;;;;5397340;26;20846;-78
2024/04/09 03:51:59;;;;;;;2.20;1.60;;;19.20;79.40;;;;;;5400508;26;20012;-79
2024/04/09 03:54:25;;;;;;;3.53;1.50;;;19.10;79.30;;;;;;5376459;26;20004;-78
2024/04/09 03:56:50;;;;;;;2.30;1.30;;;19.10;79.30;;;;;;5407109;26;20007;-79
2024/04/09 03:59:16;;;;;;;2.53;1.20;;;19.10;79.30;;;;;;5376846;26;20484;-79
2024/04/09 04:01:42;;;;;;;2.17;1.20;;;19.10;79.40;;;;;;5377836;26;20342;-80
2024/04/09 04:04:08;;;;;;;1.50;1.30;;;19.10;79.30;;;;;;5375038;26;20000;-77
2024/04/09 04:06:33;;;;;;;1.30;1.20;;;19.10;79.40;;;;;;5393640;26;20077;-78
2024/04/09 04:08:59;;;;;;;1.87;1.50;;;19.10;79.40;;;;;;5406169;26;20000;-78
2024/04/09 04:11:25;;;;;;;2.50;1.30;;;19.10;79.40;;;;;;5386509;26;20070;-79
2024/04/09 04:13:51;;;;;;;2.23;1.27;;;19.00;79.40;;;;;;5398895;26;19995;-78
2024/04/09 04:16:18;;;;;;;8.00;1.60;;;19.10;79.40;;;;;;5412343;26;20145;-78
2024/04/09 04:18:48;;;;;;;1.52;1.05;;;19.00;79.40;;;;;;5410326;26;20080;-77
2024/04/09 04:21:15;;;;;;;2.85;1.67;;;19.10;79.50;;;;;;5410280;26;20008;-77
2024/04/09 04:23:42;;;;;;;2.50;1.20;;;19.00;79.40;;;;;;5387800;26;20006;-77
2024/04/09 04:26:09;;;;;;;;;;;19.00;79.50;;;;;;5409749;26;20354;-79
2024/04/09 04:28:37;;;;;;;1.40;1.30;;;19.00;79.40;;;;;;5410275;26;19953;-77
2024/04/09 04:31:14;;;;;;;1.67;1.30;;;19.00;79.40;;;;;;5381081;26;20056;-77
2024/04/09 04:33:41;;;;;;;1.83;1.50;;;19.00;79.40;;;;;;5395552;26;20472;-78
2024/04/09 04:36:08;;;;;;;1.45;1.10;;;19.00;79.40;;;;;;5386685;26;19999;-77
2024/04/09 04:38:35;;;;;;;1.77;1.48;;;19.00;79.40;;;;;;5381453;26;20082;-78
2024/04/09 04:41:01;;;;;;;1.85;1.13;;;19.00;79.40;;;;;;5375615;26;20019;-77
2024/04/09 04:43:27;;;;;;;1.38;0.98;;;19.00;79.30;;;;;;5376847;26;20506;-79
2024/04/09 04:45:54;;;;;;;2.33;1.10;;;19.00;79.20;;;;;;5388362;26;20014;-79
2024/04/09 04:48:20;;;;;;;1.98;1.25;;;19.00;79.20;;;;;;5377500;26;20004;-78
2024/04/09 04:50:47;;;;;;;4.15;1.30;;;18.90;79.20;;;;;;5378949;26;20008;-80
2024/04/09 04:53:13;;;;;;;;;;;18.90;79.20;;;;;;5378243;26;20333;-79
2024/04/09 04:55:39;;;;;;;1.42;1.10;;;18.90;79.30;;;;;;5378259;26;19925;-77
2024/04/09 04:58:05;;;;;;;1.45;0.98;;;18.90;79.30;;;;;;5378180;26;20004;-78
2024/04/09 05:00:31;;;;;;;2.63;1.15;;;18.90;79.30;;;;;;5377895;26;20330;-78
2024/04/09 05:02:57;;;;;;;3.63;1.10;;;18.90;79.30;;;;;;5379538;26;20078;-79
2024/04/09 05:05:24;;;;;;;3.47;1.13;;;18.90;79.30;;;;;;5378682;26;20019;-79
2024/04/09 05:07:50;;;;;;;1.67;1.10;;;18.90;79.30;;;;;;5377464;26;20405;-77
2024/04/09 05:10:20;;;;;;;2.10;0.93;;;18.90;79.20;;;;;;5379382;26;20008;-77
2024/04/09 05:12:50;;;;;;;2.95;1.10;;;18.80;79.30;;;;;;5390246;26;19996;-78
2024/04/09 05:15:17;;;;;;;1.88;1.10;;;18.80;79.30;;;;;;5410336;26;20447;-78
2024/04/09 05:17:44;;;;;;;3.78;0.80;;;18.80;79.20;;;;;;5390149;26;20014;-79
2024/04/09 05:20:11;;;;;;;1.55;1.10;;;18.80;79.20;;;;;;5413089;26;20032;-78
2024/04/09 05:22:41;;;;;;;2.35;1.08;;;18.80;79.10;;;;;;5389560;26;19999;-79
2024/04/09 05:25:07;;;;;;;2.35;1.00;;;18.80;79.10;;;;;;5393034;26;20012;-78
2024/04/09 05:27:34;;;;;;;2.25;1.25;;;18.80;79.10;;;;;;5396577;26;19999;-78
2024/04/09 05:30:00;;;;;;;;;;;18.80;79.10;;;;;;5413432;26;20009;-78
2024/04/09 05:32:26;;;;;;;3.13;1.17;;;18.80;78.90;;;;;;5414704;26;19937;-78
2024/04/09 05:34:53;;;;;;;2.13;0.90;;;18.80;78.90;;;;;;5414773;26;20229;-77
2024/04/09 05:37:19;;;;;;;1.80;0.82;;;18.80;78.80;;;;;;5378583;26;20437;-78
2024/04/09 05:39:48;;;;;;;4.25;1.58;;;18.80;78.90;;;;;;5412005;26;20018;-80
2024/04/09 05:42:14;;;;;;;2.58;0.80;;;18.80;78.80;;;;;;5405668;26;20036;-78
2024/04/09 05:44:40;;;;;;;;;;;18.80;78.90;;;;;;5411768;26;19999;-77
2024/04/09 05:47:06;;;;;;;4.38;1.02;;;18.80;78.80;;;;;;5381709;26;19937;-77
2024/04/09 05:49:33;;;;;;;1.47;0.93;;;18.70;78.80;;;;;;5406041;26;20426;-78
2024/04/09 05:51:59;;;;;;;1.83;0.98;;;18.70;78.90;;;;;;5413271;26;20527;-78
2024/04/09 05:54:25;;;;;;;4.00;1.00;;;18.80;78.80;;;;;;5414939;26;20015;-79
2024/04/09 05:56:51;;;;;;;1.05;0.88;;;18.80;78.80;;;;;;5397220;26;20022;-78
2024/04/09 05:59:17;;;;;;;2.78;0.93;;;18.80;78.70;;;;;;5401639;26;20456;-77
2024/04/09 06:01:44;;;;;;;3.63;1.03;;;18.70;78.70;;;;;;5400465;26;20092;-78
2024/04/09 06:04:09;;;;;;;1.67;1.17;;;18.80;78.60;;;;;;5363441;26;20274;-78
2024/04/09 06:06:35;;;;;;;1.70;0.95;;;18.80;78.40;;;;;;5375175;26;20461;-79
2024/04/09 06:09:01;;;;;;;2.53;0.82;;;18.80;78.20;;;;;;5397253;26;20094;-77
2024/04/09 06:11:27;;;;;;;1.37;0.97;;;18.80;78.20;;;;;;5382040;26;20008;-78
2024/04/09 06:13:56;;;;;;;3.07;0.90;;;18.80;78.20;;;;;;5380495;26;20042;-77
2024/04/09 06:16:22;;;;;;;0.77;0.77;;;18.80;78.30;;;;;;5378508;26;20345;-77
2024/04/09 06:18:47;;;;;;;2.33;0.90;;;18.80;78.30;;;;;;5391549;26;20004;-78
2024/04/09 06:21:13;;;;;;;1.63;0.90;;;18.80;78.20;;;;;;5376628;26;20019;-77
2024/04/09 06:23:39;;;;;;;3.35;0.98;;;18.80;78.10;;;;;;5387293;26;20065;-77
2024/04/09 06:26:05;;;;;;;3.37;1.00;;;18.80;78.10;;;;;;5393387;26;20012;-78
2024/04/09 06:28:32;;;;;;;1.17;0.80;;;18.80;77.90;;;;;;5401080;26;20337;-78
2024/04/09 06:30:57;;;;;;;1.75;0.95;;;18.80;77.90;;;;;;5385063;26;20011;-78
2024/04/09 06:33:25;;;;;;;3.07;0.83;;;18.80;77.90;;;;;;5374562;26;20000;-78
2024/04/09 06:35:51;;;;;;;1.88;1.30;;;18.80;77.90;;;;;;5401100;26;19996;-77
2024/04/09 06:38:16;;;;;;;1.42;0.88;;;18.80;77.90;;;;;;5404602;26;20514;-78
2024/04/09 06:40:42;;;;;;;1.80;0.90;;;18.90;77.90;;;;;;5386000;26;20004;-79
2024/04/09 06:43:08;;;;;;;1.80;0.73;;;18.80;77.80;;;;;;5382265;26;20344;-78
2024/04/09 06:45:34;;;;;;;2.47;0.97;;;18.80;77.60;;;;;;5385679;26;20010;-78
2024/04/09 06:48:00;;;;;;;2.00;0.90;;;18.90;77.40;;;;;;5380047;26;20445;-78
2024/04/09 06:50:25;;;;;;;0.90;0.70;;;18.90;77.10;;;;;;5377441;26;20507;-77
2024/04/09 06:52:51;;;;;;;4.80;1.00;;;18.90;77.00;;;;;;5374648;26;20011;-76
2024/04/09 06:55:17;;;;;;;5.00;0.90;;;18.90;76.80;;;;;;5381841;26;20000;-77
2024/04/09 06:57:45;;;;;;;1.30;1.10;;;18.90;76.90;;;;;;5373760;26;20015;-78
2024/04/09 07:00:12;;;;;;;8.00;1.00;;;19.00;76.90;;;;;;5375579;26;20008;-77
2024/04/09 07:02:38;;;;;;;1.48;0.93;;;19.00;76.60;;;;;;5378053;26;20000;-78
2024/04/09 07:05:05;;;;;;;2.20;0.67;;;19.00;76.40;;;;;;5376386;26;20000;-78
2024/04/09 07:07:32;;;;;;;2.22;0.82;;;19.00;76.40;;;;;;5387672;26;20226;-78
2024/04/09 07:10:00;;;;;;;3.30;0.90;;;19.00;76.40;;;;;;5375873;26;20365;-77
2024/04/09 07:12:27;;;;;;;2.45;0.85;;;19.00;76.30;;;;;;5375344;26;20032;-77
2024/04/09 07:14:53;;;;;;;4.60;1.00;;;19.00;76.20;;;;;;5377304;26;20008;-77
2024/04/09 07:17:19;;;;;;;0.98;0.63;;;19.00;76.00;;;;;;5393296;26;19999;-76
2024/04/09 07:19:46;;;;;;;3.95;1.00;;;19.10;75.90;;;;;;5389172;26;20018;-76
2024/04/09 07:22:12;;;;;;;1.48;0.70;;;19.10;75.90;;;;;;5377441;26;20014;-76
2024/04/09 07:24:42;;;;;;;3.87;0.63;;;19.00;76.10;;;;;;5386932;26;20015;-77
2024/04/09 07:27:08;;;;;;;1.20;0.60;;;19.10;76.10;;;;;;5395719;26;20218;-77
2024/04/09 07:29:34;;;;;;;5.05;1.00;;;19.10;76.00;;;;;;5390364;26;20023;-79
2024/04/09 07:32:01;;;;;;;1.60;0.90;;;19.00;76.10;;;;;;5378019;26;20011;-78
2024/04/09 07:34:27;;;;;;;3.17;0.70;;;19.00;76.20;;;;;;5388192;26;19996;-77
2024/04/09 07:36:53;;;;;;;3.30;1.07;;;19.00;76.20;;;;;;5376447;26;20109;-77
2024/04/09 07:39:18;;;;;;;3.03;0.90;;;19.00;76.20;;;;;;5375532;26;20052;-79
2024/04/09 07:41:44;;;;;;;1.60;0.77;;;19.00;76.20;;;;;;5373542;26;20008;-77
2024/04/09 07:44:10;;;;;;;2.03;0.87;;;19.00;76.10;;;;;;5388034;26;19999;-77
2024/04/09 07:46:36;;;;;;;2.22;0.70;;;19.50;74.20;;;;;;5378900;26;20012;-77
2024/04/09 07:49:04;;;;;;;2.20;0.70;;;19.90;72.70;;;;;;5394507;26;20014;-79
2024/04/09 07:51:30;;;;;;;3.47;1.10;;;19.90;72.30;;;;;;5384087;26;20015;-78
2024/04/09 07:53:56;;;;;;;0.82;0.60;;;19.90;72.10;;;;;;5382458;26;20007;-78
2024/04/09 07:56:22;;;;;;;3.67;0.93;;;20.00;71.80;;;;;;5395422;26;20014;-79
2024/04/09 07:58:48;;;;;;;1.73;0.80;;;20.40;70.40;;;;;;5394648;26;20028;-77
2024/04/09 08:01:13;;;;;;;1.40;0.73;;;20.20;70.70;;;;;;5390845;26;20003;-79
2024/04/09 08:03:39;;;;;;;1.93;0.63;;;19.80;71.80;;;;;;5395352;26;20388;-79
2024/04/09 08:06:06;;;;;;;3.23;0.90;;;19.60;72.40;;;;;;5401583;26;20004;-77
2024/04/09 08:08:32;;;;;;;;;;;19.50;72.50;;;;;;5392281;26;20014;-77
2024/04/09 08:10:58;;;;;;;;;;;19.50;73.10;;;;;;5385324;26;19954;-77
2024/04/09 08:13:23;;;;;;;3.95;1.27;;;19.50;73.20;;;;;;5382357;26;19925;-79
2024/04/09 08:15:52;;;;;;;10.00;1.27;;;19.40;73.20;;;;;;5378106;26;20028;-77
2024/04/09 08:18:18;;;;;;;3.50;0.70;;;19.40;73.30;;;;;;5381575;26;20532;-78
2024/04/09 08:20:44;;;;;;;2.00;0.80;;;19.40;73.40;;;;;;5362134;26;20071;-78
2024/04/09 08:23:10;;;;;;;;;;;19.50;73.20;;;;;;5382329;26;19996;-79
2024/04/09 08:25:36;;;;;;;2.83;0.70;;;19.60;72.70;;;;;;5393018;26;19940;-78
2024/04/09 08:28:02;;;;;;;3.50;1.17;;;19.70;72.40;;;;;;5392311;26;20000;-81
2024/04/09 08:30:28;;;;;;;6.17;1.10;;;19.70;72.10;;;;;;5380161;26;20001;-79
2024/04/09 08:32:55;;;;;;;3.85;0.80;;;19.80;71.80;;;;;;5372792;26;20235;-77
2024/04/09 08:35:21;;;;;;;2.58;0.90;;;19.90;71.50;;;;;;5376014;26;20480;-77
2024/04/09 08:37:47;;;;;;;1.42;0.98;;;19.80;71.40;;;;;;5389429;26;20078;-77
2024/04/09 08:40:17;;;;;;;3.75;1.02;;;19.90;71.10;;;;;;5374772;26;20004;-78
2024/04/09 08:42:44;;;;;;;2.25;0.82;;;19.80;71.30;;;;;;5379369;26;20004;-78
2024/04/09 08:45:16;;;;;;;3.95;0.98;;;19.70;71.40;;;;;;5388355;26;20004;-77
2024/04/09 08:47:43;;;;;;;1.77;0.50;;;19.60;71.80;;;;;;5378484;26;20015;-79
2024/04/09 08:50:10;;;;;;;1.23;0.70;;;19.50;72.10;;;;;;5380496;26;20069;-80
2024/04/09 08:52:36;;;;;;;1.75;0.70;;;19.50;72.40;;;;;;5379087;26;20012;-82
2024/04/09 08:55:09;;;;;;;1.02;0.80;;;19.40;72.50;;;;;;5386585;26;20333;-78
2024/04/09 08:57:35;;;;;;;3.55;1.10;;;19.40;72.60;;;;;;5383746;26;19996;-80
2024/04/09 09:00:04;;;;;;;2.13;0.82;;;19.40;72.60;;;;;;5378101;26;20015;-80
2024/04/09 09:02:30;;;;;;;1.20;0.60;;;19.40;72.50;;;;;;5388715;26;20000;-80
2024/04/09 09:04:56;;;;;;;4.43;0.90;;;19.50;72.50;;;;;;5399216;26;20048;-80
2024/04/09 09:07:22;;;;;;;1.45;0.70;;;19.40;72.60;;;;;;5401655;26;20012;-77
2024/04/09 09:09:48;;;;;;;;;;;19.40;72.50;;;;;;5365715;26;20000;-80
2024/04/09 09:12:15;;;;;;;2.42;0.65;;;19.40;72.50;;;;;;5383359;26;20265;-78
2024/04/09 09:15:03;;;;;;;4.75;0.82;;;19.50;72.20;;;;;;5377960;26;20000;-79
2024/04/09 09:17:30;;;;;;;3.13;0.93;;;19.50;72.10;;;;;;5409970;26;20393;-79
2024/04/09 09:19:57;;;;;;;2.88;0.80;;;19.70;71.20;;;;;;5395263;26;20081;-76
2024/04/09 09:22:23;;;;;;;3.28;0.50;;;20.10;70.20;;;;;;5392615;26;20825;-76
2024/04/09 09:24:57;;;;;;;1.73;0.40;;;20.00;70.00;;;;;;5404109;26;20000;-78
2024/04/09 09:27:22;;;;;;;2.65;1.00;;;19.80;70.40;;;;;;5366805;26;20105;-77
2024/04/09 09:29:54;;;;;;;1.40;0.63;;;19.80;70.80;;;;;;5389573;26;20007;-77
2024/04/09 09:32:21;;;;;;;1.92;0.60;;;19.70;70.90;;;;;;5397680;26;20015;-77
2024/04/09 09:34:48;;;;;;;5.10;1.00;;;19.60;71.00;;;;;;5379302;26;20345;-77
2024/04/09 09:37:14;;;;;;;5.20;0.90;;;19.50;71.30;;;;;;5379051;26;20000;-77
2024/04/09 09:39:41;;;;;;;1.08;0.70;;;19.50;71.40;;;;;;5376070;26;20015;-76
2024/04/09 09:42:09;;;;;;;0.85;0.50;;;19.50;71.40;;;;;;5389888;26;20006;-77
2024/04/09 09:44:40;;;;;;;1.65;0.93;;;19.60;71.00;;;;;;5393469;26;20021;-79
2024/04/09 09:47:07;;;;;;;1.38;0.73;;;19.50;71.40;;;;;;5378402;26;20012;-80
2024/04/09 09:49:34;;;;;;;1.88;0.60;;;19.40;71.60;;;;;;5396482;26;19999;-78
2024/04/09 09:52:00;;;;;;;;;;;19.40;71.70;;;;;;5403000;26;20486;-79
2024/04/09 09:54:27;;;;;;;2.90;0.80;;;19.40;71.90;;;;;;5385344;26;19932;-78
2024/04/09 09:57:02;;;;;;;8.48;1.50;;;19.40;71.80;;;;;;5386089;26;20011;-78
2024/04/09 09:59:45;;;;;;;1.15;0.55;;;19.40;71.60;;;;;;5397505;26;20028;-77
2024/04/09 10:02:11;;;;;;;1.05;0.50;;;19.40;71.60;;;;;;5392208;26;20000;-79
2024/04/09 10:04:37;;;;;;;4.73;0.70;;;19.50;71.40;;;;;;5392240;26;20525;-78
2024/04/09 10:07:04;;;;;;;1.50;0.55;;;19.80;70.50;;;;;;5392222;26;20004;-78
2024/04/09 10:09:36;;;;;;;;;;;19.80;70.20;;;;;;5378205;26;20004;-80
2024/04/09 10:12:02;;;;;;;3.63;0.73;;;19.70;70.20;;;;;;5461924;26;20670;-78
2024/04/09 10:14:37;;;;;;;5.13;0.67;;;19.80;69.90;;;;;;5391663;26;20006;-79
2024/04/09 10:17:10;;;;;;;1.73;0.57;;;19.90;69.70;;;;;;5396320;26;20000;-78
2024/04/09 10:19:36;;;;;;;2.08;1.00;;;20.00;69.40;;;;;;5389040;26;20014;-79
2024/04/09 10:22:03;;;;;;;2.67;1.03;;;20.00;69.20;;;;;;5387666;26;20437;-78
2024/04/09 10:24:29;;;;;;;4.57;1.45;;;20.00;69.70;;;;;;5385213;26;20011;-77
2024/04/09 10:26:56;;;;;;;6.13;0.82;;;20.00;70.00;;;;;;5378270;26;20078;-79
2024/04/09 10:29:24;;;;;;;2.85;0.70;;;19.90;70.40;;;;;;5397211;26;20073;-79
2024/04/09 10:31:52;;;;;;;1.38;0.50;;;19.90;70.80;;;;;;5388476;26;20011;-77
2024/04/09 10:34:26;;;;;;;6.68;0.90;;;19.80;71.00;;;;;;5381108;26;20004;-78
2024/04/09 10:36:54;;;;;;;2.25;0.70;;;19.70;71.30;;;;;;5373821;26;20008;-76
2024/04/09 10:39:21;;;;;;;1.67;0.55;;;19.70;71.30;;;;;;5374185;26;20023;-77
2024/04/09 10:41:56;;;;;;;5.15;1.02;;;19.60;71.60;;;;;;5369649;26;20028;-77
2024/04/09 10:44:24;;;;;;;1.35;0.52;;;19.60;71.90;;;;;;5373676;26;20024;-78
2024/04/09 10:46:50;;;;;;;5.40;0.60;;;19.50;72.00;;;;;;5366602;26;20020;-78
2024/04/09 10:49:17;;;;;;;3.53;1.33;;;19.50;72.30;;;;;;5359881;26;20449;-78
2024/04/09 10:51:47;;;;;;;4.53;1.02;;;19.50;72.50;;;;;;5368090;26;20445;-79
2024/04/09 10:54:13;;;;;;;4.57;0.65;;;19.50;72.60;;;;;;5373192;26;20081;-79
2024/04/09 10:56:39;;;;;;;3.40;1.25;;;19.50;72.70;;;;;;5375274;26;20457;-80
2024/04/09 10:59:21;;;;;;;6.30;0.80;;;19.60;72.70;;;;;;5375169;26;19996;-80
2024/04/09 11:01:48;;;;;;;3.72;0.68;;;19.60;72.50;;;;;;5370252;26;20004;-78
2024/04/09 11:04:13;;;;;;;2.30;1.30;;;19.60;72.40;;;;;;5374754;26;20004;-77
2024/04/09 11:06:42;;;;;;;4.90;0.80;;;19.70;72.50;;;;;;5375829;26;20024;-78
2024/04/09 11:09:08;;;;;;;6.28;0.80;;;19.60;72.50;;;;;;5375700;26;20004;-78
2024/04/09 11:11:40;;;;;;;2.20;0.60;;;19.50;72.80;;;;;;5373391;26;20073;-77
2024/04/09 11:14:07;;;;;;;3.92;0.73;;;19.50;72.90;;;;;;5381179;26;20085;-78
2024/04/09 11:16:33;;;;;;;10.52;0.90;;;19.50;73.00;;;;;;5397093;26;20015;-78
2024/04/09 11:19:00;;;;;;;2.33;0.60;;;19.50;73.00;;;;;;5386384;26;20001;-77
2024/04/09 11:21:30;;;;;;;;;;;19.40;73.10;;;;;;5411991;26;20012;-77
2024/04/09 11:23:56;;;;;;;1.98;0.77;;;19.40;73.10;;;;;;5389352;26;19925;-78
2024/04/09 11:26:22;;;;;;;2.03;0.77;;;19.40;72.80;;;;;;5388617;26;20009;-78
2024/04/09 11:28:50;;;;;;;3.50;0.65;;;19.40;72.80;;;;;;5388266;26;20009;-79
2024/04/09 11:31:22;;;;;;;3.15;0.68;;;19.40;73.10;;;;;;5371499;26;20047;-76
2024/04/09 11:33:49;;;;;;;3.70;0.70;;;19.30;72.90;;;;;;5377362;26;20515;-76
2024/04/09 11:36:15;;;;;;;1.55;0.60;;;19.30;72.60;;;;;;5396804;26;20081;-77
2024/04/09 11:38:41;;;;;;;2.37;0.83;;;19.30;73.00;;;;;;5388173;26;20232;-78
2024/04/09 11:41:10;;;;;;;2.50;0.63;;;19.30;72.80;;;;;;5384684;26;20000;-78
2024/04/09 11:43:35;;;;;;;5.28;1.13;;;19.20;73.10;;;;;;5414461;26;20018;-78
2024/04/09 11:46:02;;;;;;;7.83;0.67;;;19.20;73.00;;;;;;5389209;26;19996;-78
2024/04/09 11:48:28;;;;;;;2.25;0.82;;;19.20;72.90;;;;;;5404113;26;20043;-77
2024/04/09 11:50:54;;;;;;;2.25;1.02;;;19.10;73.10;;;;;;5379059;26;20012;-77
2024/04/09 11:53:20;;;;;;;4.47;0.70;;;19.20;73.50;;;;;;5378514;26;20449;-78
2024/04/09 11:55:46;;;;;;;3.38;0.60;;;19.10;73.40;;;;;;5387310;26;20004;-78
2024/04/09 11:58:12;;;;;;;1.77;0.70;;;19.10;73.50;;;;;;5378264;26;20111;-78
2024/04/09 12:00:38;;;;;;;;;;;19.10;73.60;;;;;;5397306;26;20337;-78
2024/04/09 12:03:04;;;;;;;1.13;0.60;;;19.10;73.40;;;;;;5389786;26;19926;-79
2024/04/09 12:05:31;;;;;;;2.10;0.57;;;19.10;73.50;;;;;;5403481;26;20027;-78
2024/04/09 12:07:58;;;;;;;4.75;0.70;;;19.10;73.70;;;;;;5389899;26;20012;-79
2024/04/09 12:10:24;;;;;;;1.85;0.70;;;19.00;73.80;;;;;;5398758;26;20041;-79
2024/04/09 12:12:51;;;;;;;2.23;1.10;;;19.00;73.80;;;;;;5381571;26;20012;-78
2024/04/09 12:15:18;;;;;;;2.38;0.55;;;19.00;73.90;;;;;;5388835;26;20355;-78
2024/04/09 12:17:44;;;;;;;;;;;19.00;73.80;;;;;;5386967;26;20789;-77
2024/04/09 12:20:09;;;;;;;4.70;0.70;;;19.00;74.00;;;;;;5394426;26;19925;-78
2024/04/09 12:22:35;;;;;;;2.93;0.70;;;19.00;73.80;;;;;;5393428;26;20032;-78
2024/04/09 12:25:01;;;;;;;2.93;0.57;;;19.00;73.90;;;;;;5402557;26;20492;-78
2024/04/09 12:27:27;;;;;;;2.90;0.90;;;19.00;73.70;;;;;;5379979;26;20008;-80
2024/04/09 12:29:53;;;;;;;3.40;0.50;;;19.00;73.70;;;;;;5379580;26;20012;-78
2024/04/09 12:32:20;;;;;;;2.75;0.55;;;19.00;73.50;;;;;;5379802;26;20082;-81
2024/04/09 12:34:46;;;;;;;2.53;0.60;;;19.00;73.30;;;;;;5379573;26;20004;-80
2024/04/09 12:37:12;;;;;;;3.35;0.73;;;19.00;73.60;;;;;;5408099;26;20016;-81
2024/04/09 12:39:38;;;;;;;2.50;0.63;;;18.90;73.90;;;;;;5380123;26;20074;-81
2024/04/09 12:42:04;;;;;;;3.17;0.70;;;19.00;73.60;;;;;;5380456;26;19996;-83
2024/04/09 12:44:30;;;;;;;2.05;0.68;;;19.00;73.50;;;;;;5378946;26;19996;-79
2024/04/09 12:46:56;;;;;;;1.10;0.60;;;19.00;73.50;;;;;;5379352;26;20355;-78
2024/04/09 12:49:33;;;;;;;0.50;0.50;;;19.00;73.60;;;;;;5385736;26;20004;-76